Time;durP1;ratioP1;P1;durP2;ratioP2;P2;SDS_P1;SDS_P2;PMS_P1;PMS_P2;Temp;Humidity;BMP_temperature;BMP_pressure;BME280_temperature;BME280_humidity;BME280_pressure;Samples;Min_cycle;Max_cycle;Signal;HPM_P1;HPM_P2
2023/06/19 00:02:02;;;;;;;11.32;10.07;;;20.70;99.90;;;;;;5054628;28;20084;-65
2023/06/19 00:04:28;;;;;;;11.77;9.23;;;20.70;99.90;;;;;;5054391;28;20068;-64
2023/06/19 00:07:03;;;;;;;10.60;9.50;;;20.70;99.90;;;;;;5053504;28;20037;-65
2023/06/19 00:09:29;;;;;;;11.23;9.60;;;20.70;99.90;;;;;;5036503;28;20531;-64
2023/06/19 00:11:54;;;;;;;11.32;9.50;;;20.70;99.90;;;;;;5036230;28;20037;-65
2023/06/19 00:14:20;;;;;;;11.25;9.80;;;20.70;99.90;;;;;;5036318;28;20045;-65
2023/06/19 00:16:46;;;;;;;10.63;9.23;;;20.60;99.90;;;;;;5036393;28;20136;-65
2023/06/19 00:19:12;;;;;;;9.50;8.43;;;20.70;99.90;;;;;;5035798;28;20394;-65
2023/06/19 00:21:38;;;;;;;11.32;9.45;;;20.70;99.90;;;;;;5054165;28;20075;-65
2023/06/19 00:24:05;;;;;;;9.45;8.45;;;20.70;99.90;;;;;;5054211;28;20049;-65
2023/06/19 00:26:30;;;;;;;11.45;8.98;;;20.70;99.90;;;;;;5035363;28;20048;-65
2023/06/19 00:28:56;;;;;;;10.77;9.68;;;20.70;99.90;;;;;;5053648;28;20061;-65
2023/06/19 00:31:22;;;;;;;13.13;9.18;;;20.70;99.90;;;;;;5053739;28;20071;-65
2023/06/19 00:33:48;;;;;;;10.52;9.00;;;20.70;99.90;;;;;;5052998;28;20044;-65
2023/06/19 00:36:15;;;;;;;10.77;9.13;;;20.70;99.90;;;;;;5036009;28;20045;-65
2023/06/19 00:38:41;;;;;;;9.98;8.70;;;20.70;99.90;;;;;;5053922;28;20112;-65
2023/06/19 00:41:07;;;;;;;10.07;8.80;;;20.60;99.90;;;;;;5053367;28;20033;-65
2023/06/19 00:43:34;;;;;;;12.20;8.55;;;20.60;99.90;;;;;;5053812;28;20053;-65
2023/06/19 00:46:01;;;;;;;10.57;8.95;;;20.60;99.90;;;;;;5035705;28;20056;-65
2023/06/19 00:48:28;;;;;;;10.05;8.75;;;20.70;99.90;;;;;;5034968;28;20426;-65
2023/06/19 00:50:55;;;;;;;11.07;9.10;;;20.60;99.90;;;;;;5053194;28;20044;-63
2023/06/19 00:53:22;;;;;;;10.70;8.68;;;20.60;99.90;;;;;;5034935;28;20053;-62
2023/06/19 00:55:48;;;;;;;10.82;8.68;;;20.60;99.90;;;;;;5035025;28;20486;-62
2023/06/19 00:58:15;;;;;;;10.38;8.32;;;20.60;99.90;;;;;;5035819;28;20037;-62
2023/06/19 01:00:40;;;;;;;11.45;9.40;;;20.70;99.90;;;;;;5053195;28;20406;-63
2023/06/19 01:03:06;;;;;;;10.60;9.20;;;20.60;99.90;;;;;;5052733;28;20047;-62
2023/06/19 01:05:33;;;;;;;9.15;8.02;;;20.60;99.90;;;;;;5053184;28;20106;-63
2023/06/19 01:08:32;;;;;;;10.15;8.45;;;20.60;99.90;;;;;;5035696;28;20049;-62
2023/06/19 01:11:00;;;;;;;10.05;8.77;;;20.70;99.90;;;;;;5053245;28;20047;-62
2023/06/19 01:13:41;;;;;;;10.80;8.98;;;20.60;99.90;;;;;;5029283;28;20045;-62
2023/06/19 01:16:07;;;;;;;9.52;8.43;;;20.60;99.90;;;;;;5072408;28;20041;-63
2023/06/19 01:18:34;;;;;;;10.90;8.50;;;20.60;99.90;;;;;;5038506;28;20040;-63
2023/06/19 01:21:14;;;;;;;11.10;8.95;;;20.50;99.90;;;;;;5054977;28;20047;-63
2023/06/19 01:23:40;;;;;;;8.93;7.90;;;20.50;99.90;;;;;;5054729;28;20049;-62
2023/06/19 01:26:07;;;;;;;10.95;8.48;;;20.50;99.90;;;;;;5073008;28;20036;-63
2023/06/19 01:28:37;;;;;;;10.95;8.75;;;20.50;99.90;;;;;;5054756;28;20556;-62
2023/06/19 01:31:20;;;;;;;10.43;8.13;;;20.50;99.90;;;;;;5054087;28;20094;-62
2023/06/19 01:33:47;;;;;;;10.02;7.85;;;20.50;99.90;;;;;;5072689;28;20596;-62
2023/06/19 01:36:14;;;;;;;11.38;8.25;;;20.50;99.90;;;;;;5054557;28;20602;-62
2023/06/19 01:38:43;;;;;;;10.13;8.20;;;20.50;99.90;;;;;;5054187;28;20032;-62
2023/06/19 01:41:10;;;;;;;10.25;7.75;;;20.40;99.90;;;;;;5054966;28;20041;-63
2023/06/19 01:43:36;;;;;;;10.65;8.27;;;20.40;99.90;;;;;;5053663;28;20037;-62
2023/06/19 01:46:02;;;;;;;9.80;8.18;;;20.40;99.90;;;;;;5072135;28;20036;-62
2023/06/19 01:48:28;;;;;;;11.27;8.90;;;20.40;99.90;;;;;;5054551;28;20115;-62
2023/06/19 01:50:53;;;;;;;10.70;9.13;;;20.40;99.90;;;;;;5071534;28;20043;-62
2023/06/19 01:53:19;;;;;;;12.18;8.48;;;20.40;99.90;;;;;;5054404;28;20041;-62
2023/06/19 01:55:45;;;;;;;9.10;7.85;;;20.40;99.90;;;;;;5072506;28;20040;-62
2023/06/19 01:58:11;;;;;;;9.40;8.38;;;20.30;99.90;;;;;;5071844;28;20036;-62
2023/06/19 02:00:37;;;;;;;11.10;7.68;;;20.30;99.90;;;;;;5054311;28;20036;-62
2023/06/19 02:03:04;;;;;;;10.23;8.60;;;20.30;99.90;;;;;;5070457;28;20115;-62
2023/06/19 02:05:30;;;;;;;10.30;8.55;;;20.30;99.90;;;;;;5071383;28;20044;-62
2023/06/19 02:07:56;;;;;;;9.50;7.82;;;20.30;99.90;;;;;;5054431;28;20527;-62
2023/06/19 02:10:22;;;;;;;10.02;8.00;;;20.30;99.90;;;;;;5054102;28;20076;-62
2023/06/19 02:12:47;;;;;;;10.00;7.97;;;20.30;99.90;;;;;;5036767;28;20045;-62
2023/06/19 02:15:13;;;;;;;11.85;9.25;;;20.30;99.90;;;;;;5054345;28;20393;-63
2023/06/19 02:17:39;;;;;;;9.40;7.97;;;20.30;99.90;;;;;;5072090;28;20037;-63
2023/06/19 02:20:09;;;;;;;9.48;7.78;;;20.30;99.90;;;;;;5071418;28;20082;-62
2023/06/19 02:22:35;;;;;;;11.27;8.15;;;20.30;99.90;;;;;;5054458;28;20048;-62
2023/06/19 02:25:01;;;;;;;10.57;7.47;;;20.40;99.90;;;;;;5054026;28;20433;-62
2023/06/19 02:27:26;;;;;;;15.82;7.68;;;20.40;99.90;;;;;;5052740;28;20043;-63
2023/06/19 02:29:52;;;;;;;9.57;7.90;;;20.40;99.90;;;;;;5054221;28;20049;-63
2023/06/19 02:32:17;;;;;;;9.48;7.72;;;20.40;99.90;;;;;;5054374;28;20048;-63
2023/06/19 02:34:44;;;;;;;9.30;7.82;;;20.40;99.90;;;;;;5071217;28;20482;-62
2023/06/19 02:37:10;;;;;;;10.02;7.75;;;20.40;99.90;;;;;;5054175;28;20048;-62
2023/06/19 02:39:36;;;;;;;9.93;7.05;;;20.40;99.90;;;;;;5053733;28;20093;-62
2023/06/19 02:42:01;;;;;;;9.27;7.22;;;20.50;99.90;;;;;;5071025;28;20492;-62
2023/06/19 02:44:27;;;;;;;10.93;8.05;;;20.50;99.90;;;;;;5037268;28;20397;-63
2023/06/19 02:46:52;;;;;;;9.35;8.00;;;20.50;99.90;;;;;;5071096;28;20516;-62
2023/06/19 02:49:18;;;;;;;10.00;7.60;;;20.50;99.90;;;;;;5071778;28;20044;-62
2023/06/19 02:51:44;;;;;;;12.80;8.68;;;20.50;99.90;;;;;;5053581;28;20044;-63
2023/06/19 02:54:09;;;;;;;9.60;7.45;;;20.60;99.90;;;;;;5070791;28;20040;-62
2023/06/19 02:56:35;;;;;;;10.35;7.13;;;20.60;99.90;;;;;;5053648;28;20039;-62
2023/06/19 02:59:01;;;;;;;10.48;7.10;;;20.60;99.90;;;;;;5071806;28;20036;-62
2023/06/19 03:01:26;;;;;;;9.25;7.82;;;20.70;99.90;;;;;;5053177;28;20187;-62
2023/06/19 03:03:52;;;;;;;13.02;8.02;;;20.60;99.90;;;;;;5036774;28;20451;-62
2023/06/19 03:06:18;;;;;;;9.30;8.13;;;20.70;99.90;;;;;;5071447;28;20035;-62
2023/06/19 03:08:44;;;;;;;8.20;6.55;;;20.70;99.90;;;;;;5033341;28;20497;-62
2023/06/19 03:11:11;;;;;;;9.40;6.95;;;20.70;99.90;;;;;;5033849;28;20047;-62
2023/06/19 03:13:50;;;;;;;10.15;7.55;;;20.70;99.90;;;;;;5051488;28;20049;-63
2023/06/19 03:16:16;;;;;;;9.00;7.40;;;20.70;99.90;;;;;;5053553;28;20039;-62
2023/06/19 03:18:44;;;;;;;9.65;7.60;;;20.60;99.90;;;;;;5037382;28;20036;-62
2023/06/19 03:21:10;;;;;;;13.07;7.47;;;20.70;99.90;;;;;;5055723;28;20443;-62
2023/06/19 03:23:36;;;;;;;10.57;7.88;;;20.60;99.90;;;;;;5036673;28;20052;-62
2023/06/19 03:26:02;;;;;;;9.68;7.82;;;20.60;99.90;;;;;;5054866;28;20456;-62
2023/06/19 03:28:28;;;;;;;11.55;8.32;;;20.60;99.90;;;;;;5020723;28;20057;-62
2023/06/19 03:30:54;;;;;;;10.05;7.88;;;20.60;99.90;;;;;;5036296;28;20037;-62
2023/06/19 03:33:20;;;;;;;12.65;9.07;;;20.60;99.90;;;;;;5037074;28;20037;-62
2023/06/19 03:35:45;;;;;;;9.63;7.90;;;20.60;99.90;;;;;;5037184;28;20044;-62
2023/06/19 03:38:11;;;;;;;9.23;7.63;;;20.60;99.90;;;;;;5036358;28;20040;-63
2023/06/19 03:40:37;;;;;;;11.48;7.82;;;20.60;99.90;;;;;;5054921;28;20037;-62
2023/06/19 03:43:02;;;;;;;10.13;7.07;;;20.60;99.90;;;;;;5054042;28;20041;-63
2023/06/19 03:45:28;;;;;;;9.75;7.50;;;20.50;99.90;;;;;;5036896;28;20072;-63
2023/06/19 03:47:54;;;;;;;12.70;8.35;;;20.60;99.90;;;;;;5054524;28;20049;-63
2023/06/19 03:50:19;;;;;;;13.20;7.88;;;20.60;99.90;;;;;;5036210;28;20049;-63
2023/06/19 03:52:45;;;;;;;10.85;7.93;;;20.50;99.90;;;;;;5036520;28;20041;-62
2023/06/19 03:55:11;;;;;;;11.23;8.35;;;20.50;99.90;;;;;;5040489;28;20029;-63
2023/06/19 03:57:37;;;;;;;13.27;7.63;;;20.50;99.90;;;;;;5035879;28;20052;-62
2023/06/19 04:00:07;;;;;;;8.63;6.60;;;20.50;99.90;;;;;;5036967;28;20110;-62
2023/06/19 04:02:35;;;;;;;9.95;6.53;;;20.40;99.90;;;;;;5020030;28;20049;-62
2023/06/19 04:05:01;;;;;;;8.98;6.38;;;20.40;99.90;;;;;;5053742;28;20040;-62
2023/06/19 04:07:27;;;;;;;9.50;7.22;;;20.30;99.90;;;;;;5054437;28;20033;-62
2023/06/19 04:09:52;;;;;;;7.75;5.70;;;20.30;99.90;;;;;;5054401;28;20398;-62
2023/06/19 04:12:18;;;;;;;9.48;6.55;;;20.30;99.90;;;;;;5053555;28;20037;-62
2023/06/19 04:14:44;;;;;;;8.73;6.10;;;20.30;99.90;;;;;;5054204;28;20079;-62
2023/06/19 04:17:09;;;;;;;8.65;5.63;;;20.20;99.90;;;;;;5036806;28;20037;-62
2023/06/19 04:19:35;;;;;;;8.30;5.72;;;20.20;99.90;;;;;;5035505;28;20119;-62
2023/06/19 04:22:01;;;;;;;7.28;4.63;;;20.10;99.90;;;;;;5054196;28;20083;-62
2023/06/19 04:24:26;;;;;;;6.90;4.50;;;20.10;99.90;;;;;;5036109;28;20122;-62
2023/06/19 04:26:52;;;;;;;12.65;4.85;;;20.10;99.90;;;;;;5035325;28;20045;-62
2023/06/19 04:29:18;;;;;;;7.15;4.13;;;20.10;99.90;;;;;;5053865;28;20064;-62
2023/06/19 04:31:46;;;;;;;6.80;3.50;;;20.00;99.90;;;;;;5036071;28;20391;-62
2023/06/19 04:34:20;;;;;;;5.70;3.08;;;20.00;99.90;;;;;;5053572;28;20037;-62
2023/06/19 04:36:47;;;;;;;6.28;3.53;;;20.00;99.90;;;;;;5019594;28;20049;-62
2023/06/19 04:39:12;;;;;;;7.43;3.05;;;20.00;99.90;;;;;;5053416;28;20047;-62
2023/06/19 04:41:39;;;;;;;7.35;3.17;;;20.00;99.90;;;;;;5035916;28;20041;-62
2023/06/19 04:44:05;;;;;;;6.70;2.72;;;20.10;99.90;;;;;;5043755;28;20048;-63
2023/06/19 04:46:31;;;;;;;5.43;2.90;;;20.10;99.90;;;;;;5052800;28;20397;-62
2023/06/19 04:48:57;;;;;;;5.65;2.78;;;20.10;99.90;;;;;;5036083;28;20049;-62
2023/06/19 04:51:23;;;;;;;7.55;3.03;;;20.10;99.90;;;;;;5035656;28;20549;-62
2023/06/19 04:53:48;;;;;;;4.53;2.50;;;20.10;99.90;;;;;;5034694;28;20048;-63
2023/06/19 04:56:14;;;;;;;5.50;2.97;;;20.20;99.90;;;;;;5053498;28;20037;-62
2023/06/19 04:58:46;;;;;;;7.05;3.30;;;20.20;99.90;;;;;;5053457;28;20389;-62
2023/06/19 05:01:12;;;;;;;6.60;3.42;;;20.30;99.90;;;;;;5052818;28;20398;-62
2023/06/19 05:03:39;;;;;;;5.68;3.38;;;20.40;99.90;;;;;;5035894;28;20052;-62
2023/06/19 05:06:05;;;;;;;9.98;3.10;;;20.40;99.90;;;;;;5035695;28;20076;-63
2023/06/19 05:08:31;;;;;;;6.28;3.28;;;20.50;99.90;;;;;;5034587;28;20083;-62
2023/06/19 05:10:57;;;;;;;8.30;3.65;;;20.50;99.90;;;;;;5053120;28;20424;-62
2023/06/19 05:13:23;;;;;;;4.85;2.95;;;20.50;99.90;;;;;;5053129;28;20063;-62
2023/06/19 05:15:50;;;;;;;7.05;4.22;;;20.60;99.90;;;;;;5052184;28;20086;-63
2023/06/19 05:18:16;;;;;;;6.93;4.63;;;20.60;99.90;;;;;;5052958;28;20048;-63
2023/06/19 05:20:42;;;;;;;7.70;4.40;;;20.60;99.90;;;;;;5035030;28;20041;-62
2023/06/19 05:23:07;;;;;;;6.38;4.40;;;20.60;99.90;;;;;;5052554;28;20041;-62
2023/06/19 05:25:33;;;;;;;7.53;4.45;;;20.60;99.90;;;;;;5035144;28;20401;-62
2023/06/19 05:27:59;;;;;;;7.25;4.82;;;20.50;99.90;;;;;;5052550;28;20053;-62
2023/06/19 05:30:24;;;;;;;6.25;4.03;;;20.50;99.90;;;;;;5034215;28;20060;-62
2023/06/19 05:32:50;;;;;;;7.35;4.05;;;20.50;99.90;;;;;;5035059;28;20045;-63
2023/06/19 05:35:16;;;;;;;10.75;4.53;;;20.50;99.90;;;;;;5052626;28;20044;-62
2023/06/19 05:37:43;;;;;;;8.52;4.97;;;20.50;99.90;;;;;;5051375;28;20063;-62
2023/06/19 05:40:09;;;;;;;9.07;5.88;;;20.50;99.90;;;;;;5035168;28;20037;-62
2023/06/19 05:42:36;;;;;;;8.55;6.15;;;20.50;99.90;;;;;;5051743;28;20094;-62
2023/06/19 05:45:02;;;;;;;10.27;7.15;;;20.50;99.90;;;;;;5052720;28;20037;-62
2023/06/19 05:47:29;;;;;;;9.63;6.20;;;20.50;99.90;;;;;;5052426;28;20044;-62
2023/06/19 05:49:54;;;;;;;8.57;6.47;;;20.50;99.90;;;;;;5067820;28;20497;-62
2023/06/19 05:52:21;;;;;;;10.70;8.00;;;20.50;99.90;;;;;;5072334;28;20074;-62
2023/06/19 05:54:47;;;;;;;11.90;7.93;;;20.50;99.90;;;;;;5054383;28;20123;-62
2023/06/19 05:57:14;;;;;;;13.88;9.27;;;20.70;99.90;;;;;;5071557;28;20025;-63
2023/06/19 05:59:41;;;;;;;12.77;8.68;;;20.70;99.90;;;;;;5072460;28;20045;-62
2023/06/19 06:02:07;;;;;;;12.60;9.23;;;20.80;99.90;;;;;;5054706;28;20045;-63
2023/06/19 06:04:34;;;;;;;13.90;10.32;;;20.80;99.90;;;;;;5071454;28;20457;-63
2023/06/19 06:07:00;;;;;;;13.27;11.15;;;20.80;99.90;;;;;;5046019;28;20524;-63
2023/06/19 06:09:26;;;;;;;16.85;14.65;;;20.80;99.90;;;;;;5053783;28;20040;-63
2023/06/19 06:11:52;;;;;;;18.70;14.82;;;20.70;99.90;;;;;;5071361;28;20036;-62
2023/06/19 06:14:18;;;;;;;20.58;18.25;;;20.80;99.90;;;;;;5054111;28;20047;-63
2023/06/19 06:16:44;;;;;;;23.42;17.00;;;20.70;99.90;;;;;;5072019;28;20048;-62
2023/06/19 06:19:10;;;;;;;20.55;18.45;;;20.70;99.90;;;;;;5063874;28;20037;-63
2023/06/19 06:21:36;;;;;;;22.92;19.95;;;20.70;99.90;;;;;;5070601;28;20508;-63
2023/06/19 06:24:02;;;;;;;25.05;22.23;;;20.60;99.90;;;;;;5049632;28;20458;-62
2023/06/19 06:26:28;;;;;;;31.45;25.98;;;20.60;99.90;;;;;;5059530;28;20044;-65
2023/06/19 06:28:55;;;;;;;28.10;24.90;;;20.60;99.90;;;;;;5063802;28;20071;-64
2023/06/19 06:31:23;;;;;;;27.40;24.27;;;20.60;99.90;;;;;;5031294;28;20057;-64
2023/06/19 06:33:49;;;;;;;30.67;26.25;;;20.60;99.90;;;;;;5030443;28;20497;-64
2023/06/19 06:36:15;;;;;;;25.13;22.50;;;20.60;99.90;;;;;;5049185;28;20086;-64
2023/06/19 06:38:41;;;;;;;28.65;25.13;;;20.70;99.90;;;;;;5031560;28;20485;-64
2023/06/19 06:41:08;;;;;;;26.27;23.60;;;20.80;99.90;;;;;;5048814;28;20044;-64
2023/06/19 06:43:34;;;;;;;26.15;23.25;;;20.80;99.90;;;;;;5049857;28;20041;-64
2023/06/19 06:46:00;;;;;;;23.98;21.13;;;20.80;99.90;;;;;;5048862;28;20797;-65
2023/06/19 06:48:26;;;;;;;28.40;21.95;;;20.80;99.90;;;;;;5049386;28;20044;-65
2023/06/19 06:51:00;;;;;;;31.30;23.33;;;20.70;99.90;;;;;;5064160;28;20055;-65
2023/06/19 06:53:27;;;;;;;;;;;20.60;99.90;;;;;;5073205;28;20052;-65
2023/06/19 06:55:54;;;;;;;28.10;23.33;;;20.50;99.90;;;;;;5039061;28;19924;-65
2023/06/19 06:58:19;;;;;;;29.25;25.27;;;20.40;99.90;;;;;;5051626;28;20047;-65
2023/06/19 07:00:45;;;;;;;28.73;24.35;;;20.30;99.90;;;;;;5054412;28;20497;-65
2023/06/19 07:03:11;;;;;;;31.02;24.27;;;20.30;99.90;;;;;;5055349;28;20083;-65
2023/06/19 07:05:37;;;;;;;30.40;26.63;;;20.20;99.90;;;;;;5068688;28;20033;-65
2023/06/19 07:08:03;;;;;;;33.60;26.92;;;20.10;99.90;;;;;;5050252;28;20041;-65
2023/06/19 07:10:33;;;;;;;32.22;26.40;;;20.10;99.90;;;;;;5055094;28;20535;-65
2023/06/19 07:12:59;;;;;;;29.83;23.55;;;20.10;99.90;;;;;;5054890;28;20090;-65
2023/06/19 07:15:24;;;;;;;33.50;23.17;;;20.00;99.90;;;;;;5071361;28;20041;-65
2023/06/19 07:17:50;;;;;;;31.15;22.85;;;19.90;99.90;;;;;;5085762;28;20194;-65
2023/06/19 07:20:16;;;;;;;32.72;23.98;;;19.80;99.90;;;;;;5053670;28;20478;-66
2023/06/19 07:22:43;;;;;;;35.45;23.58;;;19.60;99.90;;;;;;5044134;28;20470;-66
2023/06/19 07:25:10;;;;;;;32.20;23.45;;;19.60;99.90;;;;;;5035008;28;20086;-66
2023/06/19 07:27:36;;;;;;;31.30;21.73;;;19.50;99.90;;;;;;5046492;28;20092;-65
2023/06/19 07:30:02;;;;;;;39.50;25.23;;;19.40;99.90;;;;;;5040508;28;20084;-65
2023/06/19 07:32:28;;;;;;;32.28;23.95;;;19.40;99.90;;;;;;5045147;28;20044;-65
2023/06/19 07:34:54;;;;;;;30.83;23.38;;;19.30;99.90;;;;;;5054893;28;20128;-66
2023/06/19 07:37:20;;;;;;;35.10;24.05;;;19.30;99.90;;;;;;5047942;28;20079;-66
2023/06/19 07:39:47;;;;;;;30.95;22.92;;;19.30;99.90;;;;;;5072775;28;20056;-66
2023/06/19 07:42:14;;;;;;;32.95;22.65;;;19.30;99.90;;;;;;5064021;28;20742;-66
2023/06/19 07:44:40;;;;;;;32.58;22.63;;;19.30;99.90;;;;;;5050857;28;20535;-65
2023/06/19 07:47:07;;;;;;;28.60;20.23;;;19.30;99.90;;;;;;5059416;28;20428;-66
2023/06/19 07:49:34;;;;;;;32.65;23.60;;;19.30;99.90;;;;;;5049512;28;20049;-66
2023/06/19 07:51:59;;;;;;;31.27;22.10;;;19.30;99.90;;;;;;5039756;28;20244;-66
2023/06/19 07:54:26;;;;;;;27.85;18.75;;;19.20;99.90;;;;;;5072409;28;20488;-66
2023/06/19 07:56:51;;;;;;;32.78;22.20;;;19.30;99.90;;;;;;5049310;28;20134;-66
2023/06/19 07:59:17;;;;;;;27.63;20.10;;;19.30;99.90;;;;;;5045466;28;20441;-66
2023/06/19 08:01:43;;;;;;;29.00;20.67;;;19.30;99.90;;;;;;5067445;28;20036;-68
2023/06/19 08:04:09;;;;;;;24.45;18.73;;;19.30;99.90;;;;;;5065078;28;20044;-67
2023/06/19 08:06:34;;;;;;;24.48;18.38;;;19.30;99.90;;;;;;5068467;28;20102;-67
2023/06/19 08:09:00;;;;;;;27.92;19.25;;;19.20;99.90;;;;;;5069234;28;20036;-67
2023/06/19 08:11:26;;;;;;;29.13;17.77;;;19.10;99.90;;;;;;5070409;28;20050;-62
2023/06/19 08:13:52;;;;;;;22.52;16.92;;;19.10;99.90;;;;;;5090851;28;20462;-62
2023/06/19 08:16:18;;;;;;;19.55;15.20;;;19.10;99.90;;;;;;5042254;28;20044;-62
2023/06/19 08:18:44;;;;;;;19.70;13.80;;;19.00;99.90;;;;;;5032032;28;20037;-62
2023/06/19 08:21:10;;;;;;;15.57;11.80;;;19.10;99.90;;;;;;5045739;28;20048;-62
2023/06/19 08:23:37;;;;;;;16.80;12.77;;;19.00;99.90;;;;;;5067751;28;20055;-62
2023/06/19 08:26:03;;;;;;;14.80;12.30;;;18.90;99.90;;;;;;5069095;28;20043;-62
2023/06/19 08:28:32;;;;;;;15.00;13.35;;;18.80;99.90;;;;;;5043264;28;20057;-62
2023/06/19 08:30:57;;;;;;;19.98;12.70;;;18.80;99.90;;;;;;5046285;28;20049;-62
2023/06/19 08:33:23;;;;;;;18.80;13.93;;;18.80;99.90;;;;;;5044243;28;20555;-62
2023/06/19 08:35:49;;;;;;;17.17;12.43;;;18.80;99.90;;;;;;5047243;28;20043;-62
2023/06/19 08:38:15;;;;;;;20.58;14.45;;;18.80;99.90;;;;;;5034257;28;20036;-62
2023/06/19 08:40:44;;;;;;;19.27;14.68;;;18.80;99.90;;;;;;5043429;28;20475;-62
2023/06/19 08:43:10;;;;;;;17.77;13.60;;;18.80;99.90;;;;;;5041587;28;20425;-62
2023/06/19 08:45:35;;;;;;;17.45;12.77;;;18.80;99.90;;;;;;5028361;28;20037;-63
2023/06/19 08:48:09;;;;;;;19.35;14.02;;;18.90;99.90;;;;;;5041110;28;20063;-65
2023/06/19 08:50:35;;;;;;;24.65;16.15;;;18.90;99.90;;;;;;5023832;28;20124;-63
2023/06/19 08:53:01;;;;;;;20.08;14.38;;;19.00;99.90;;;;;;5027599;28;20132;-64
2023/06/19 08:55:27;;;;;;;20.70;14.40;;;19.00;99.90;;;;;;5042058;28;20159;-64
2023/06/19 08:57:53;;;;;;;18.55;13.95;;;19.10;99.90;;;;;;5050280;28;20465;-64
2023/06/19 09:00:26;;;;;;;20.25;14.27;;;19.10;99.90;;;;;;5031668;28;20102;-64
2023/06/19 09:03:02;;;;;;;21.45;15.55;;;19.20;99.90;;;;;;5036536;28;20038;-64
2023/06/19 09:05:28;;;;;;;17.80;13.95;;;19.30;99.90;;;;;;5053993;28;20123;-65
2023/06/19 09:07:56;;;;;;;19.05;14.93;;;19.20;99.90;;;;;;5044713;28;20400;-64
2023/06/19 09:10:23;;;;;;;16.27;13.68;;;19.20;99.90;;;;;;5030969;28;20044;-64
2023/06/19 09:13:00;;;;;;;19.95;13.40;;;19.20;99.90;;;;;;5041771;28;20095;-64
2023/06/19 09:15:34;;;;;;;18.95;14.45;;;19.40;99.90;;;;;;5047358;28;20437;-64
2023/06/19 09:18:11;;;;;;;16.58;12.70;;;19.40;99.90;;;;;;5045063;28;20041;-64
2023/06/19 09:20:44;;;;;;;17.20;13.32;;;19.60;99.90;;;;;;5027855;28;20049;-64
2023/06/19 09:23:13;;;;;;;20.08;14.55;;;19.50;99.90;;;;;;5029443;28;20056;-64
2023/06/19 09:25:53;;;;;;;17.58;12.43;;;19.60;99.90;;;;;;5030225;28;20073;-65
2023/06/19 09:28:27;;;;;;;20.40;13.52;;;19.70;99.90;;;;;;4996467;28;1146588;-65
2023/06/19 09:31:00;;;;;;;;;;;19.70;99.90;;;;;;5063319;28;20114;-62
2023/06/19 09:33:31;;;;;;;15.35;12.27;;;19.70;99.90;;;;;;5033177;28;19928;-62
2023/06/19 09:35:59;;;;;;;26.25;14.90;;;19.70;99.90;;;;;;5048079;28;20393;-62
2023/06/19 09:38:27;;;;;;;24.73;15.45;;;19.70;99.90;;;;;;5071769;28;20063;-68
2023/06/19 09:40:53;;;;;;;19.15;13.73;;;19.70;99.90;;;;;;5071218;28;20042;-69
2023/06/19 09:43:28;;;;;;;17.63;13.65;;;19.70;99.90;;;;;;5070827;28;20055;-69
2023/06/19 09:45:56;;;;;;;19.63;14.07;;;19.70;99.90;;;;;;5054894;28;20053;-69
2023/06/19 09:48:29;;;;;;;19.48;14.23;;;19.70;99.90;;;;;;5051253;28;20076;-68
2023/06/19 09:51:21;;;;;;;17.48;12.57;;;19.70;99.90;;;;;;5052348;28;20041;-68
2023/06/19 09:53:48;;;;;;;18.05;14.48;;;19.60;99.90;;;;;;5040557;28;20390;-68
2023/06/19 09:56:15;;;;;;;17.40;13.35;;;19.50;99.90;;;;;;5051843;28;20040;-66
2023/06/19 09:58:43;;;;;;;18.50;12.82;;;19.50;99.90;;;;;;5034404;28;20086;-68
2023/06/19 10:01:09;;;;;;;16.48;12.48;;;19.50;99.90;;;;;;5062761;28;20067;-67
2023/06/19 10:03:36;;;;;;;21.40;14.73;;;19.50;99.90;;;;;;5039236;28;20112;-68
2023/06/19 10:06:03;;;;;;;17.60;13.30;;;19.50;99.90;;;;;;5035084;28;20045;-68
2023/06/19 10:08:39;;;;;;;15.65;13.27;;;19.50;99.90;;;;;;5040989;28;20045;-68
2023/06/19 10:11:05;;;;;;;21.75;14.02;;;19.50;99.90;;;;;;5053724;28;20130;-68
2023/06/19 10:13:33;;;;;;;21.00;14.02;;;19.60;99.90;;;;;;5053783;28;20071;-68
2023/06/19 10:15:59;;;;;;;21.52;15.02;;;19.70;99.90;;;;;;5071676;28;20086;-68
2023/06/19 10:18:26;;;;;;;20.27;14.10;;;19.80;99.90;;;;;;5069961;28;20068;-68
2023/06/19 10:20:53;;;;;;;18.73;14.60;;;19.90;99.90;;;;;;5041865;28;20047;-69
2023/06/19 10:23:28;;;;;;;19.42;15.70;;;20.10;99.90;;;;;;5042447;28;20035;-68
2023/06/19 10:25:54;;;;;;;17.23;13.95;;;20.40;99.90;;;;;;5062443;28;20093;-69
2023/06/19 10:28:21;;;;;;;15.98;13.68;;;20.60;99.90;;;;;;5063628;28;20049;-67
2023/06/19 10:31:00;;;;;;;19.50;14.90;;;20.60;99.90;;;;;;5058035;28;20501;-68
2023/06/19 10:33:32;;;;;;;17.48;14.38;;;20.70;99.90;;;;;;5053383;28;20494;-68
2023/06/19 10:35:59;;;;;;;19.75;12.55;;;20.80;99.90;;;;;;5059309;28;20462;-68
2023/06/19 10:38:26;;;;;;;15.98;13.40;;;20.70;99.90;;;;;;5052879;28;20068;-67
2023/06/19 10:40:52;;;;;;;16.40;14.15;;;20.70;99.90;;;;;;5036247;28;20040;-67
2023/06/19 10:43:24;;;;;;;22.33;14.65;;;20.60;99.90;;;;;;5051672;28;20037;-67
2023/06/19 10:45:51;;;;;;;17.98;13.88;;;20.70;99.90;;;;;;5050889;28;20044;-67
2023/06/19 10:48:24;;;;;;;16.90;13.35;;;21.00;99.90;;;;;;5051825;28;20041;-66
2023/06/19 10:50:51;;;;;;;16.90;12.73;;;21.20;99.90;;;;;;5042665;28;20041;-66
2023/06/19 10:53:32;;;;;;;17.13;14.23;;;21.20;99.90;;;;;;5051017;28;20052;-66
2023/06/19 10:56:02;;;;;;;15.48;12.68;;;21.30;99.90;;;;;;5052931;28;20047;-67
2023/06/19 10:58:29;;;;;;;18.60;13.95;;;21.10;99.90;;;;;;5028965;28;20051;-67
2023/06/19 11:00:55;;;;;;;17.05;14.52;;;20.90;99.90;;;;;;5051632;28;20556;-66
2023/06/19 11:03:21;;;;;;;20.88;13.13;;;20.90;99.90;;;;;;5049397;28;20111;-66
2023/06/19 11:05:48;;;;;;;17.17;13.50;;;20.80;99.90;;;;;;5049585;28;20124;-62
2023/06/19 11:08:21;;;;;;;19.50;16.00;;;20.90;99.90;;;;;;5045605;28;20040;-63
2023/06/19 11:10:47;;;;;;;20.10;14.77;;;20.80;99.90;;;;;;5068942;28;20106;-65
2023/06/19 11:13:15;;;;;;;19.65;14.32;;;20.90;99.90;;;;;;5051114;28;20037;-63
2023/06/19 11:15:42;;;;;;;17.75;14.82;;;20.90;99.90;;;;;;5054687;28;20438;-62
2023/06/19 11:18:07;;;;;;;18.98;15.95;;;21.00;99.90;;;;;;5039198;28;20127;-62
2023/06/19 11:20:50;;;;;;;20.02;15.70;;;21.10;99.90;;;;;;5059341;28;20112;-66
2023/06/19 11:23:17;;;;;;;21.83;15.07;;;21.20;99.90;;;;;;5017185;28;20128;-66
2023/06/19 11:25:43;;;;;;;22.55;15.65;;;21.40;99.90;;;;;;5047897;28;20047;-66
2023/06/19 11:28:21;;;;;;;23.45;17.17;;;21.40;99.90;;;;;;5032918;28;20061;-66
2023/06/19 11:30:57;;;;;;;22.48;16.13;;;21.30;99.90;;;;;;5054670;28;20048;-66
2023/06/19 11:33:26;;;;;;;21.35;16.80;;;21.10;99.90;;;;;;5030644;28;20102;-66
2023/06/19 11:35:54;;;;;;;21.27;17.15;;;21.00;99.90;;;;;;5071290;28;20036;-66
2023/06/19 11:38:22;;;;;;;20.80;15.63;;;21.00;99.90;;;;;;5057068;28;20037;-65
2023/06/19 11:40:48;;;;;;;19.88;14.60;;;21.10;99.90;;;;;;5053318;28;20102;-65
2023/06/19 11:43:31;;;;;;;19.92;15.00;;;21.30;99.90;;;;;;5071037;28;20086;-66
2023/06/19 11:46:07;;;;;;;25.15;15.93;;;21.60;99.90;;;;;;5075077;28;20075;-65
2023/06/19 11:48:36;;;;;;;18.45;13.25;;;21.70;99.90;;;;;;5042721;28;20776;-65
2023/06/19 11:51:02;;;;;;;22.17;13.43;;;21.80;99.90;;;;;;5059311;28;20111;-66
2023/06/19 11:53:28;;;;;;;20.83;16.08;;;22.10;99.90;;;;;;5056368;28;20124;-66
2023/06/19 11:55:55;;;;;;;19.92;14.30;;;22.10;99.90;;;;;;5055937;28;20040;-65
2023/06/19 11:58:20;;;;;;;15.70;12.15;;;22.00;99.90;;;;;;5074271;28;20036;-63
2023/06/19 12:00:47;;;;;;;14.73;11.73;;;21.90;99.90;;;;;;5056664;28;20182;-65
2023/06/19 12:03:13;;;;;;;15.00;11.15;;;22.10;99.90;;;;;;5073696;28;20047;-64
2023/06/19 12:05:39;;;;;;;13.70;10.13;;;22.10;99.90;;;;;;5057132;28;20044;-65
2023/06/19 12:08:06;;;;;;;16.27;11.77;;;22.10;99.90;;;;;;5074972;28;20048;-65
2023/06/19 12:10:32;;;;;;;13.18;11.05;;;22.10;99.90;;;;;;5074031;28;20036;-65
2023/06/19 12:12:58;;;;;;;13.40;10.52;;;22.10;99.90;;;;;;5074393;28;20405;-66
2023/06/19 12:15:24;;;;;;;11.95;9.38;;;22.20;99.90;;;;;;5074386;28;20040;-66
2023/06/19 12:17:51;;;;;;;10.85;9.35;;;22.10;99.90;;;;;;5055644;28;20044;-67
2023/06/19 12:20:17;;;;;;;13.15;10.25;;;22.10;99.90;;;;;;5073611;28;20370;-64
2023/06/19 12:22:43;;;;;;;12.27;9.35;;;22.20;99.90;;;;;;5056455;28;20036;-64
2023/06/19 12:25:10;;;;;;;13.65;10.35;;;22.20;99.90;;;;;;5055851;28;20558;-65
2023/06/19 12:27:39;;;;;;;41.42;14.50;;;22.40;99.90;;;;;;5052082;28;20063;-63
2023/06/19 12:30:05;;;;;;;11.43;8.98;;;22.40;99.90;;;;;;5054475;28;20402;-63
2023/06/19 12:32:31;;;;;;;13.20;9.50;;;22.60;99.90;;;;;;5035425;28;20055;-63
2023/06/19 12:34:57;;;;;;;13.48;9.25;;;23.00;99.90;;;;;;5035973;28;20116;-64
2023/06/19 12:37:23;;;;;;;46.90;15.55;;;23.10;99.90;;;;;;5019671;28;20044;-64